Time;durP1;ratioP1;P1;durP2;ratioP2;P2;SDS_P1;SDS_P2;PMS_P1;PMS_P2;Temp;Humidity;BMP_temperature;BMP_pressure;BME280_temperature;BME280_humidity;BME280_pressure;Samples;Min_cycle;Max_cycle;Signal;HPM_P1;HPM_P2
2022/04/12 00:01:39;;;;;;;2.70;1.33;;;;;;;16.73;40.96;97268.28;5048031;28;20028;-25
2022/04/12 00:04:05;;;;;;;2.25;1.20;;;;;;;16.72;41.12;97269.50;5042319;28;20120;-25
2022/04/12 00:06:30;;;;;;;4.30;1.40;;;;;;;16.73;40.94;97271.78;5041753;28;20028;-25
2022/04/12 00:08:56;;;;;;;3.90;1.10;;;;;;;16.71;41.13;97274.22;5041254;28;20028;-26
2022/04/12 00:11:21;;;;;;;3.35;1.20;;;;;;;16.71;40.89;97268.72;5041784;28;20791;-25
2022/04/12 00:13:47;;;;;;;2.33;1.20;;;;;;;16.68;41.10;97266.16;5041626;28;20081;-26
2022/04/12 00:16:12;;;;;;;1.63;1.10;;;;;;;16.70;41.09;97264.47;5050069;28;20488;-26
2022/04/12 00:21:22;;;;;;;5.35;1.77;;;;;;;16.71;40.94;97257.78;5042067;28;20140;-25
2022/04/12 00:23:48;;;;;;;2.00;1.13;;;;;;;16.66;41.15;97258.38;5042501;28;20040;-26
2022/04/12 00:26:16;;;;;;;2.75;1.17;;;;;;;16.71;41.18;97257.78;5041527;28;20020;-26
2022/04/12 00:28:42;;;;;;;4.38;1.40;;;;;;;16.69;41.49;97259.47;5039153;28;20020;-26
2022/04/12 00:31:08;;;;;;;2.47;1.25;;;;;;;16.71;41.34;97260.50;5028146;28;20067;-25
2022/04/12 00:33:34;;;;;;;3.08;1.40;;;;;;;16.66;41.60;97261.09;5042560;28;20042;-26
2022/04/12 00:36:01;;;;;;;4.07;1.20;;;;;;;16.68;41.64;97250.47;5065340;28;20036;-25
2022/04/12 00:38:32;;;;;;;3.53;1.33;;;;;;;16.66;41.86;97252.91;5054056;28;20048;-26
2022/04/12 00:41:02;;;;;;;4.22;1.40;;;;;;;16.71;41.61;97244.09;5051308;28;20032;-25
2022/04/12 00:43:32;;;;;;;3.20;1.33;;;;;;;16.64;41.88;97244.34;5051417;28;20036;-26
2022/04/12 00:46:00;;;;;;;3.65;1.40;;;;;;;16.62;41.93;97241.28;5049902;28;20025;-25
2022/04/12 00:48:34;;;;;;;5.07;1.42;;;;;;;16.68;41.76;97236.00;5042636;28;20036;-26
2022/04/12 00:51:00;;;;;;;2.92;1.25;;;;;;;16.66;41.65;97241.94;5042403;28;20563;-26
2022/04/12 00:53:27;;;;;;;6.00;1.42;;;;;;;16.66;41.84;97239.19;5042288;28;20078;-27
2022/04/12 00:55:54;;;;;;;1.98;1.15;;;;;;;16.68;41.91;97249.72;5043442;28;20051;-25
2022/04/12 00:58:20;;;;;;;2.78;1.38;;;;;;;16.66;41.73;97244.69;5043206;28;20020;-25
2022/04/12 01:00:49;;;;;;;4.63;1.58;;;;;;;16.62;41.87;97246.78;5043448;28;20020;-25
2022/04/12 01:03:14;;;;;;;2.78;1.40;;;;;;;16.61;41.91;97244.44;5042969;28;20397;-25
2022/04/12 01:05:40;;;;;;;5.57;1.98;;;;;;;16.58;42.07;97248.84;5042888;28;20089;-25
2022/04/12 01:08:06;;;;;;;2.35;1.42;;;;;;;16.60;41.88;97254.63;5041027;28;20715;-25
2022/04/12 01:10:33;;;;;;;4.57;1.80;;;;;;;16.63;42.30;97247.53;5042718;28;20132;-25
2022/04/12 01:13:01;;;;;;;2.88;1.38;;;;;;;16.53;42.35;97246.69;5042567;28;20440;-25
2022/04/12 01:15:28;;;;;;;5.10;1.48;;;;;;;16.58;42.24;97242.59;5040926;28;20323;-26
2022/04/12 01:17:54;;;;;;;3.25;1.40;;;;;;;16.52;42.31;97245.16;5041295;28;20051;-25
2022/04/12 01:20:24;;;;;;;2.25;1.42;;;;;;;16.52;42.36;97239.69;5040893;28;20499;-25
2022/04/12 01:22:52;;;;;;;4.15;1.40;;;;;;;16.53;42.39;97238.47;5039933;28;20400;-26
2022/04/12 01:25:22;;;;;;;2.63;1.60;;;;;;;16.51;42.53;97235.41;5040682;28;20032;-25
2022/04/12 01:27:47;;;;;;;2.42;1.40;;;;;;;16.47;42.52;97240.25;5056021;28;20032;-25
2022/04/12 01:30:13;;;;;;;3.38;1.42;;;;;;;16.46;42.43;97239.47;5055327;28;20021;-26
2022/04/12 01:32:39;;;;;;;4.57;1.60;;;;;;;16.57;42.21;97241.09;5055393;28;20499;-26
2022/04/12 01:35:05;;;;;;;2.40;1.48;;;;;;;16.51;42.39;97229.94;5055383;28;20067;-25
2022/04/12 01:37:30;;;;;;;3.33;1.40;;;;;;;16.52;42.43;97232.22;5065382;28;20037;-25
2022/04/12 01:39:56;;;;;;;3.55;1.80;;;;;;;16.52;42.26;97226.75;5075102;28;20016;-26
2022/04/12 01:42:22;;;;;;;2.75;1.42;;;;;;;16.52;42.31;97226.00;5075205;28;20021;-26
2022/04/12 01:44:47;;;;;;;3.03;1.60;;;;;;;16.52;42.33;97226.00;5075079;28;20048;-25
2022/04/12 01:47:13;;;;;;;4.78;1.77;;;;;;;16.53;42.21;97225.53;5075039;28;20075;-25
2022/04/12 01:49:38;;;;;;;3.63;1.40;;;;;;;16.50;42.20;97231.13;5074961;28;20099;-25
2022/04/12 01:52:04;;;;;;;4.15;1.67;;;;;;;16.51;42.06;97227.19;5074723;28;20017;-26
2022/04/12 01:54:30;;;;;;;2.88;1.60;;;;;;;16.45;42.21;97231.69;5075009;28;20049;-25
2022/04/12 01:56:55;;;;;;;3.40;1.52;;;;;;;16.46;42.21;97234.00;5074785;28;20384;-25
2022/04/12 01:59:21;;;;;;;3.28;1.45;;;;;;;16.48;42.13;97223.38;5074855;28;20027;-25
2022/04/12 02:01:46;;;;;;;3.58;1.83;;;;;;;16.49;42.04;97222.16;5074800;28;20052;-26
2022/04/12 02:04:12;;;;;;;4.15;1.33;;;;;;;16.52;42.07;97217.78;5073273;28;20028;-25
2022/04/12 02:06:37;;;;;;;4.32;1.50;;;;;;;16.42;42.32;97221.66;5074484;28;20040;-25
2022/04/12 02:09:03;;;;;;;2.97;1.50;;;;;;;16.41;42.38;97222.88;5074617;28;20124;-25
2022/04/12 02:11:28;;;;;;;4.60;1.40;;;;;;;16.41;42.44;97215.41;5074124;28;20043;-25
2022/04/12 02:13:54;;;;;;;4.82;1.67;;;;;;;16.40;42.21;97213.13;5074504;28;20031;-25
2022/04/12 02:16:19;;;;;;;3.58;1.83;;;;;;;16.36;41.95;97218.72;5074560;28;20384;-25
2022/04/12 02:18:45;;;;;;;2.78;1.25;;;;;;;16.42;41.91;97211.47;5074625;28;20024;-27
2022/04/12 02:21:10;;;;;;;3.10;1.33;;;;;;;16.45;41.92;97223.50;5074378;28;20027;-25
2022/04/12 02:23:36;;;;;;;5.70;1.70;;;;;;;16.42;42.08;97216.19;5073974;28;20112;-25
2022/04/12 02:26:01;;;;;;;3.40;1.20;;;;;;;16.41;41.93;97218.16;5074587;28;20029;-26
2022/04/12 02:28:27;;;;;;;2.50;1.30;;;;;;;16.37;42.11;97222.22;5074450;28;20024;-25
2022/04/12 02:30:52;;;;;;;4.15;1.33;;;;;;;16.37;42.00;97214.78;5074253;28;20035;-25
2022/04/12 02:33:18;;;;;;;4.78;1.50;;;;;;;16.37;41.87;97212.03;5074180;28;20024;-25
2022/04/12 02:35:43;;;;;;;2.17;1.42;;;;;;;16.43;41.56;97212.25;5074184;28;20028;-25
2022/04/12 02:38:09;;;;;;;5.22;1.95;;;;;;;16.39;41.71;97209.63;5073951;28;20115;-26
2022/04/12 02:40:34;;;;;;;2.60;1.25;;;;;;;16.37;41.68;97209.31;5074060;28;20028;-25
2022/04/12 02:43:00;;;;;;;2.63;1.10;;;;;;;16.28;41.72;97203.00;5074040;28;20036;-26
2022/04/12 02:45:25;;;;;;;4.03;1.63;;;;;;;16.40;41.43;97218.59;5073913;28;20037;-25
2022/04/12 02:47:52;;;;;;;2.67;1.33;;;;;;;16.35;41.61;97206.25;5073572;28;20031;-25
2022/04/12 02:50:17;;;;;;;3.13;1.15;;;;;;;16.34;41.56;97203.94;5073901;28;20057;-25
2022/04/12 02:52:43;;;;;;;3.25;1.30;;;;;;;16.32;41.70;97215.34;5074115;28;20115;-25
2022/04/12 02:55:08;;;;;;;2.65;1.10;;;;;;;16.46;41.13;97200.38;5073973;28;20024;-26
2022/04/12 02:57:34;;;;;;;2.55;1.23;;;;;;;16.39;41.70;97204.16;5073678;28;20428;-25
2022/04/12 02:59:59;;;;;;;3.78;1.40;;;;;;;16.40;41.56;97192.00;5073617;28;20107;-25
2022/04/12 03:02:25;;;;;;;3.22;1.23;;;;;;;16.34;41.69;97203.94;5073402;28;20091;-26
2022/04/12 03:04:50;;;;;;;2.45;1.30;;;;;;;16.34;41.92;97199.22;5073486;28;20414;-25
2022/04/12 03:07:16;;;;;;;6.15;1.40;;;;;;;16.33;41.90;97192.22;5073505;28;20194;-25
2022/04/12 03:09:41;;;;;;;3.63;1.13;;;;;;;16.33;42.13;97191.47;5073156;28;20469;-25
2022/04/12 03:12:07;;;;;;;3.22;1.30;;;;;;;16.33;42.07;97183.25;5073593;28;20020;-25
2022/04/12 03:14:33;;;;;;;2.85;1.15;;;;;;;16.28;42.30;97192.06;5073627;28;20031;-25
2022/04/12 03:16:58;;;;;;;2.90;1.20;;;;;;;16.33;42.07;97196.94;5073783;28;20028;-25
2022/04/12 03:19:24;;;;;;;2.55;1.10;;;;;;;16.32;42.03;97189.97;5073204;28;20033;-25
2022/04/12 03:21:50;;;;;;;2.28;1.23;;;;;;;16.34;41.87;97193.75;5072988;28;20056;-26
2022/04/12 03:24:15;;;;;;;2.65;1.02;;;;;;;16.27;42.03;97190.53;5072795;28;20027;-25
2022/04/12 03:26:41;;;;;;;2.08;0.95;;;;;;;16.30;41.81;97192.38;5072312;28;20056;-25
2022/04/12 03:29:07;;;;;;;3.03;1.20;;;;;;;16.25;41.98;97190.19;5072170;28;20017;-25
2022/04/12 03:31:33;;;;;;;1.83;1.15;;;;;;;16.26;41.95;97191.72;5073267;28;20063;-25
2022/04/12 03:33:59;;;;;;;2.63;1.20;;;;;;;16.32;41.84;97195.44;5073068;28;20033;-26
2022/04/12 03:36:25;;;;;;;3.65;1.50;;;;;;;16.28;42.07;97194.78;5073315;28;20036;-25
2022/04/12 03:38:52;;;;;;;2.30;1.20;;;;;;;16.30;41.87;97187.66;5073245;28;20034;-25
2022/04/12 03:41:21;;;;;;;2.53;1.08;;;;;;;16.24;42.05;97192.16;5072647;28;20107;-25
2022/04/12 03:43:47;;;;;;;2.03;1.10;;;;;;;16.29;41.84;97201.78;5073435;28;20492;-26
2022/04/12 03:46:13;;;;;;;4.22;1.48;;;;;;;16.30;41.81;97187.66;5073071;28;20028;-25
2022/04/12 03:48:38;;;;;;;2.65;1.13;;;;;;;16.34;41.52;97187.53;5073336;28;20032;-25
2022/04/12 03:51:04;;;;;;;3.80;1.23;;;;;;;16.31;41.60;97188.44;5072966;28;20028;-26
2022/04/12 03:53:31;;;;;;;1.95;1.02;;;;;;;16.21;41.68;97190.31;5073220;28;20028;-25
2022/04/12 03:55:57;;;;;;;2.00;1.23;;;;;;;16.23;41.61;97187.13;5073104;28;20024;-26
2022/04/12 03:58:22;;;;;;;3.15;1.20;;;;;;;16.24;41.61;97188.66;5073005;28;20025;-25
2022/04/12 04:00:49;;;;;;;2.47;1.05;;;;;;;16.21;41.48;97184.06;5073044;28;20577;-25
2022/04/12 04:03:15;;;;;;;3.72;1.20;;;;;;;16.19;41.62;97187.28;5073006;28;20024;-25
2022/04/12 04:05:41;;;;;;;3.95;1.30;;;;;;;16.21;41.68;97192.28;5073061;28;20067;-25
2022/04/12 04:08:07;;;;;;;2.03;1.30;;;;;;;16.22;41.71;97189.09;5072744;28;20061;-25
2022/04/12 04:10:34;;;;;;;1.67;0.95;;;;;;;16.22;41.54;97189.09;5073015;28;20434;-25
2022/04/12 04:13:01;;;;;;;1.60;1.05;;;;;;;16.23;41.46;97187.13;5072810;28;20071;-25
2022/04/12 04:15:27;;;;;;;2.42;1.27;;;;;;;16.22;41.42;97191.84;5072667;28;20032;-25
2022/04/12 04:17:52;;;;;;;4.75;1.40;;;;;;;16.19;41.65;97197.47;5073084;28;20031;-25
2022/04/12 04:20:18;;;;;;;4.03;1.33;;;;;;;16.26;41.39;97192.50;5073098;28;20197;-25
2022/04/12 04:22:44;;;;;;;1.77;1.13;;;;;;;16.23;41.28;97200.81;5067937;28;20115;-25
2022/04/12 04:25:14;;;;;;;2.70;1.40;;;;;;;16.19;41.53;97195.50;5052713;28;20096;-25
2022/04/12 04:27:41;;;;;;;4.15;1.20;;;;;;;16.21;41.51;97189.56;5052751;28;20021;-25
2022/04/12 04:30:09;;;;;;;2.63;1.10;;;;;;;16.21;41.51;97195.03;5060500;28;20029;-25
2022/04/12 04:32:35;;;;;;;2.30;1.08;;;;;;;16.09;41.61;97193.88;5071831;28;20033;-25
2022/04/12 04:35:02;;;;;;;4.35;1.23;;;;;;;16.20;41.45;97201.69;5073789;28;20107;-25
2022/04/12 04:37:28;;;;;;;3.97;1.40;;;;;;;16.15;41.45;97194.84;5076439;28;20086;-26
2022/04/12 04:39:53;;;;;;;2.80;1.20;;;;;;;16.15;41.52;97197.59;5076363;28;20415;-25
2022/04/12 04:42:20;;;;;;;3.38;1.35;;;;;;;16.09;41.67;97199.34;5076282;28;20473;-25
2022/04/12 04:44:47;;;;;;;2.13;1.35;;;;;;;16.10;41.76;97201.63;5076180;28;20464;-26
2022/04/12 04:47:13;;;;;;;5.40;2.88;;;;;;;16.12;41.64;97196.50;5076292;28;20032;-26
2022/04/12 04:49:38;;;;;;;5.43;2.83;;;;;;;16.12;41.63;97204.69;5076080;28;20035;-25
2022/04/12 04:52:04;;;;;;;6.82;4.63;;;;;;;16.11;41.60;97213.34;5074901;28;20086;-26
2022/04/12 04:54:30;;;;;;;5.53;3.88;;;;;;;16.09;41.72;97211.06;5076285;28;20016;-25
2022/04/12 04:56:56;;;;;;;6.53;4.00;;;;;;;16.15;41.69;97214.75;5075883;28;20030;-25
2022/04/12 04:59:22;;;;;;;5.35;3.40;;;;;;;16.15;41.86;97200.31;5076388;28;20063;-26
2022/04/12 05:01:49;;;;;;;7.10;3.25;;;;;;;16.14;41.75;97204.25;5075950;28;20056;-25
2022/04/12 05:04:14;;;;;;;4.55;3.30;;;;;;;16.05;41.74;97206.94;5075959;28;20079;-26
2022/04/12 05:06:40;;;;;;;4.43;3.60;;;;;;;16.15;41.79;97203.81;5075540;28;20488;-27
2022/04/12 05:09:05;;;;;;;5.13;3.45;;;;;;;16.16;41.77;97205.34;5076006;28;20461;-25
2022/04/12 05:11:31;;;;;;;6.60;2.88;;;;;;;16.11;41.78;97211.38;5074585;28;20028;-25
2022/04/12 05:13:57;;;;;;;4.80;2.40;;;;;;;16.03;42.02;97218.31;5074584;28;20094;-26
2022/04/12 05:16:22;;;;;;;4.90;2.70;;;;;;;16.08;41.93;97209.53;5075718;28;20070;-25
2022/04/12 05:18:48;;;;;;;5.15;2.40;;;;;;;16.20;41.62;97218.13;5074501;28;20025;-27
2022/04/12 05:21:13;;;;;;;2.70;1.95;;;;;;;16.10;41.93;97220.78;5075537;28;20074;-25
2022/04/12 05:23:39;;;;;;;3.40;2.47;;;;;;;16.07;42.00;97208.00;5075647;28;20092;-25
2022/04/12 05:26:04;;;;;;;4.75;2.10;;;;;;;16.08;42.16;97217.72;5075574;28;20111;-26
2022/04/12 05:28:33;;;;;;;3.72;1.77;;;;;;;16.02;42.47;97219.53;5075421;28;20831;-25
2022/04/12 05:30:58;;;;;;;4.95;2.15;;;;;;;16.06;42.27;97230.34;5075434;28;20192;-25
2022/04/12 05:33:24;;;;;;;5.68;2.03;;;;;;;16.01;42.65;97234.41;5075397;28;20035;-26
2022/04/12 05:35:49;;;;;;;2.53;1.70;;;;;;;16.05;42.44;97229.59;5075568;28;20097;-26
2022/04/12 05:38:16;;;;;;;3.60;1.90;;;;;;;16.08;42.39;97230.66;5075396;28;20033;-27
2022/04/12 05:40:42;;;;;;;4.22;2.03;;;;;;;16.07;42.55;97226.41;5075449;28;20147;-25
2022/04/12 05:43:07;;;;;;;5.70;2.20;;;;;;;16.09;42.43;97222.00;5075172;28;20052;-25
2022/04/12 05:45:33;;;;;;;3.97;2.22;;;;;;;16.07;42.61;97231.88;5074105;28;20093;-25
2022/04/12 05:48:00;;;;;;;5.68;1.50;;;;;;;16.03;42.82;97234.72;5075435;28;20093;-25
2022/04/12 05:50:26;;;;;;;5.10;1.63;;;;;;;16.03;42.79;97229.25;5075103;28;20016;-25
2022/04/12 05:52:53;;;;;;;3.65;2.00;;;;;;;16.00;42.85;97229.38;5074997;28;20028;-25
2022/04/12 05:55:22;;;;;;;5.22;1.75;;;;;;;15.99;43.04;97234.06;5075202;28;20024;-25
2022/04/12 05:57:52;;;;;;;3.75;2.47;;;;;;;16.02;43.01;97243.38;5073642;28;20028;-26
2022/04/12 06:00:19;;;;;;;5.13;2.13;;;;;;;15.99;43.06;97238.78;5052980;28;20067;-25
2022/04/12 06:02:48;;;;;;;3.40;1.90;;;;;;;15.94;43.18;97242.09;5051673;28;20036;-26
2022/04/12 06:05:14;;;;;;;5.32;1.65;;;;;;;16.06;42.45;97250.28;5052777;28;20032;-25
2022/04/12 06:07:40;;;;;;;6.50;2.33;;;;;;;16.04;42.75;97240.97;5052627;28;20056;-25
2022/04/12 06:10:06;;;;;;;6.22;1.92;;;;;;;16.07;42.69;97238.09;5052538;28;20029;-26
2022/04/12 06:12:32;;;;;;;4.53;1.70;;;;;;;16.04;42.75;97241.72;5050641;28;20029;-25
2022/04/12 06:14:57;;;;;;;4.28;1.98;;;;;;;16.02;42.69;97243.38;5052590;28;20077;-26
2022/04/12 06:17:33;;;;;;;4.72;2.00;;;;;;;15.98;42.72;97253.66;5051235;28;20171;-25
2022/04/12 06:20:01;;;;;;;4.07;1.50;;;;;;;15.96;42.84;97242.41;5052507;28;20480;-26
2022/04/12 06:22:26;;;;;;;5.38;1.42;;;;;;;15.99;42.64;97247.00;5052385;28;20033;-26
2022/04/12 06:24:52;;;;;;;3.38;1.50;;;;;;;16.02;42.65;97257.06;5052515;28;20039;-26
2022/04/12 06:27:17;;;;;;;3.20;2.17;;;;;;;16.03;42.64;97253.88;5052579;28;20028;-26
2022/04/12 06:29:43;;;;;;;2.33;1.40;;;;;;;15.91;42.86;97257.41;5052348;28;20068;-25
2022/04/12 06:32:08;;;;;;;1.77;1.30;;;;;;;15.93;42.80;97257.75;5052140;28;20064;-25
2022/04/12 06:34:34;;;;;;;4.13;1.38;;;;;;;16.05;42.40;97251.47;5053918;28;20028;-26
2022/04/12 06:37:00;;;;;;;3.92;1.40;;;;;;;16.03;42.60;97258.59;5072177;28;20025;-25
2022/04/12 06:39:25;;;;;;;3.17;1.63;;;;;;;15.99;42.68;97264.16;5071945;28;20028;-25
2022/04/12 06:41:51;;;;;;;4.05;1.38;;;;;;;16.04;42.23;97255.41;5072090;28;20487;-25
2022/04/12 06:44:16;;;;;;;3.97;2.13;;;;;;;16.03;42.55;97251.16;5070760;28;20812;-25
2022/04/12 06:46:42;;;;;;;2.80;1.52;;;;;;;15.96;42.59;97259.56;5071584;28;20035;-26
2022/04/12 06:49:07;;;;;;;3.75;1.80;;;;;;;16.00;42.50;97262.97;5071910;28;20025;-25
2022/04/12 06:51:35;;;;;;;1.95;1.45;;;;;;;15.95;42.57;97252.56;5070195;28;20064;-25
2022/04/12 06:54:02;;;;;;;1.80;1.40;;;;;;;15.92;42.75;97264.41;5071835;28;20464;-26
2022/04/12 06:56:28;;;;;;;2.78;1.38;;;;;;;16.01;42.47;97258.25;5071243;28;20449;-25
2022/04/12 06:58:54;;;;;;;1.92;1.27;;;;;;;16.05;42.42;97264.38;5071589;28;20039;-25
2022/04/12 07:01:23;;;;;;;1.95;1.15;;;;;;;15.99;42.51;97255.97;5071686;28;20033;-25
2022/04/12 07:03:48;;;;;;;2.55;1.40;;;;;;;15.96;42.52;97258.81;5071692;28;20105;-26
2022/04/12 07:06:14;;;;;;;1.75;1.08;;;;;;;15.91;42.61;97254.69;5071508;28;20468;-25
2022/04/12 07:08:40;;;;;;;2.33;1.13;;;;;;;15.86;42.67;97249.00;5069333;28;20056;-26
2022/04/12 07:11:05;;;;;;;4.93;1.55;;;;;;;15.82;43.19;97253.84;5071489;28;20032;-26
2022/04/12 07:13:31;;;;;;;1.83;1.17;;;;;;;15.86;42.76;97252.50;5070116;28;20031;-25
2022/04/12 07:15:57;;;;;;;4.13;1.40;;;;;;;15.80;42.94;97251.53;5070769;28;20074;-25
2022/04/12 07:18:22;;;;;;;2.92;1.42;;;;;;;15.93;42.64;97257.75;5071716;28;20032;-26
2022/04/12 07:20:48;;;;;;;3.05;1.40;;;;;;;15.82;42.94;97262.03;5071588;28;20243;-25
2022/04/12 07:23:14;;;;;;;3.28;1.50;;;;;;;15.86;42.68;97260.69;5071212;28;20409;-25
2022/04/12 07:25:39;;;;;;;2.72;1.30;;;;;;;15.74;42.87;97256.00;5071300;28;20439;-26
2022/04/12 07:28:05;;;;;;;4.18;1.63;;;;;;;15.79;42.88;97266.41;5071421;28;20028;-26
2022/04/12 07:30:32;;;;;;;2.63;1.48;;;;;;;15.86;42.67;97262.66;5071174;28;20025;-25
2022/04/12 07:32:57;;;;;;;1.70;1.23;;;;;;;15.90;42.51;97268.78;5071407;28;20020;-26
2022/04/12 07:35:22;;;;;;;2.70;1.33;;;;;;;15.90;42.71;97268.78;5072948;28;20026;-25
2022/04/12 07:37:48;;;;;;;3.35;1.20;;;;;;;15.88;42.67;97273.94;5072380;28;20033;-25
2022/04/12 07:40:14;;;;;;;2.60;1.30;;;;;;;15.84;42.96;97270.53;5072791;28;20472;-26
2022/04/12 07:42:40;;;;;;;3.35;1.42;;;;;;;15.84;42.80;97282.25;5073030;28;20062;-25
2022/04/12 07:45:05;;;;;;;2.35;1.20;;;;;;;15.95;42.56;97282.66;5073334;28;20032;-25
2022/04/12 07:47:50;;;;;;;2.15;1.17;;;;;;;15.84;42.83;97281.47;5072839;28;20070;-26
2022/04/12 07:50:15;;;;;;;2.90;1.40;;;;;;;15.73;43.17;97279.84;5068216;28;20504;-25
2022/04/12 07:52:41;;;;;;;3.08;1.48;;;;;;;15.87;42.84;97281.38;5051774;28;20155;-25
2022/04/12 07:55:07;;;;;;;2.30;1.73;;;;;;;15.84;42.89;97282.25;5052799;28;20067;-25
2022/04/12 07:57:32;;;;;;;3.47;1.50;;;;;;;16.00;42.58;97289.56;5053145;28;20025;-25
2022/04/12 07:59:58;;;;;;;1.90;1.15;;;;;;;15.96;42.56;97297.88;5053324;28;20028;-25
2022/04/12 08:02:24;;;;;;;4.18;1.30;;;;;;;15.97;42.80;97298.63;5051966;28;20017;-25
2022/04/12 08:04:50;;;;;;;1.85;1.48;;;;;;;16.01;42.57;97296.56;5052273;28;20044;-25
2022/04/12 08:07:15;;;;;;;4.93;1.50;;;;;;;15.93;42.75;97295.28;5051296;28;20048;-25
2022/04/12 08:09:41;;;;;;;3.75;1.70;;;;;;;15.91;42.76;97292.97;5053787;28;20117;-25
2022/04/12 08:12:06;;;;;;;4.78;2.53;;;;;;;15.93;42.65;97295.28;5056927;28;20017;-25
2022/04/12 08:14:32;;;;;;;3.72;1.88;;;;;;;15.75;42.86;97293.09;5057009;28;20021;-25
2022/04/12 08:16:57;;;;;;;5.20;2.20;;;;;;;15.77;42.70;97296.94;5056839;28;20017;-26
2022/04/12 08:19:23;;;;;;;4.10;2.13;;;;;;;15.81;42.71;97294.09;5055524;28;20024;-25
2022/04/12 08:21:48;;;;;;;3.97;2.58;;;;;;;15.93;42.53;97295.28;5056647;28;20043;-25
2022/04/12 08:24:14;;;;;;;4.00;2.15;;;;;;;15.76;42.66;97291.91;5056866;28;20021;-25
2022/04/12 08:26:39;;;;;;;4.65;2.10;;;;;;;15.80;42.41;97287.09;5056510;28;20029;-25
2022/04/12 08:29:05;;;;;;;4.85;2.50;;;;;;;15.04;42.69;97289.78;5056461;28;20025;-26
2022/04/12 08:31:31;;;;;;;3.05;2.10;;;;;;;15.31;41.99;97290.13;5055232;28;20056;-26
2022/04/12 08:33:56;;;;;;;5.68;2.67;;;;;;;15.55;41.28;97292.56;5056539;28;20068;-27
2022/04/12 08:36:22;;;;;;;5.30;2.38;;;;;;;15.68;40.83;97294.09;5056385;28;20068;-28
2022/04/12 08:38:51;;;;;;;6.55;3.00;;;;;;;15.54;41.38;97299.22;5055153;28;20028;-26
2022/04/12 08:41:21;;;;;;;5.10;2.70;;;;;;;15.56;41.54;97288.63;5056222;28;20029;-27
2022/04/12 08:43:52;;;;;;;6.05;3.75;;;;;;;15.36;41.30;97286.84;5054870;28;20021;-27
2022/04/12 08:46:18;;;;;;;5.72;2.70;;;;;;;15.04;40.81;97300.69;5056333;28;20385;-27
2022/04/12 08:48:45;;;;;;;4.78;2.58;;;;;;;15.54;41.22;97293.75;5056621;28;20032;-28
2022/04/12 08:51:11;;;;;;;5.78;2.38;;;;;;;15.73;40.88;97285.34;5056242;28;20025;-27
2022/04/12 08:53:36;;;;;;;4.15;2.70;;;;;;;15.77;40.75;97296.94;5056224;28;20025;-26
2022/04/12 08:56:05;;;;;;;4.47;2.47;;;;;;;15.58;39.88;97283.50;5056151;28;20074;-26
2022/04/12 08:58:30;;;;;;;4.85;2.50;;;;;;;15.69;40.13;97292.13;5056119;28;20024;-26
2022/04/12 09:00:57;;;;;;;4.72;2.67;;;;;;;15.60;40.47;97292.00;5056082;28;20070;-27
2022/04/12 09:03:23;;;;;;;3.63;2.20;;;;;;;15.51;39.93;97289.91;5055882;28;20028;-26
2022/04/12 09:05:49;;;;;;;3.90;2.30;;;;;;;15.64;39.91;97284.47;5055953;28;20028;-26
2022/04/12 09:08:27;;;;;;;4.97;2.30;;;;;;;15.68;40.00;97282.41;5055759;28;20048;-26
2022/04/12 09:11:01;;;;;;;2.63;1.98;;;;;;;15.74;39.35;97280.63;5055889;28;20106;-26
2022/04/12 09:13:28;;;;;;;4.20;2.85;;;;;;;15.68;39.22;97296.06;5055889;28;20025;-26
2022/04/12 09:15:54;;;;;;;5.72;2.60;;;;;;;15.77;39.65;97291.47;5055823;28;20088;-26
2022/04/12 09:18:38;;;;;;;4.00;2.30;;;;;;;15.82;39.20;97285.41;5055878;28;20494;-26
2022/04/12 09:21:14;;;;;;;5.05;2.03;;;;;;;15.60;39.51;97286.53;5055648;28;20031;-26
2022/04/12 09:23:43;;;;;;;5.13;2.25;;;;;;;15.69;39.20;97292.13;5055650;28;20052;-26
2022/04/12 09:26:08;;;;;;;4.55;2.10;;;;;;;15.79;39.10;97288.28;5055450;28;20028;-26
2022/04/12 09:28:41;;;;;;;4.53;2.50;;;;;;;15.91;38.84;97287.50;5055473;28;20017;-26
2022/04/12 09:31:25;;;;;;;3.55;2.40;;;;;;;15.77;37.79;97279.75;5055641;28;20033;-26
2022/04/12 09:33:52;;;;;;;5.40;2.45;;;;;;;15.41;37.86;97289.03;5068052;28;20040;-27
2022/04/12 09:36:18;;;;;;;3.53;2.13;;;;;;;15.54;38.56;97282.81;5073293;28;20724;-27
2022/04/12 09:38:46;;;;;;;4.07;2.40;;;;;;;15.42;38.43;97278.88;5075557;28;20086;-27
2022/04/12 09:41:17;;;;;;;6.10;3.00;;;;;;;15.25;37.98;97278.22;5075304;28;20031;-27
2022/04/12 09:44:08;;;;;;;3.28;2.30;;;;;;;15.42;38.16;97265.97;5075282;28;20035;-26
2022/04/12 09:46:39;;;;;;;5.07;2.08;;;;;;;15.75;38.08;97274.72;5075323;28;20033;-26
2022/04/12 09:49:07;;;;;;;4.35;2.60;;;;;;;15.45;37.19;97272.53;5073921;28;20457;-28
2022/04/12 09:51:36;;;;;;;6.57;3.17;;;;;;;15.50;37.47;97263.00;5075000;28;20032;-26
2022/04/12 09:54:02;;;;;;;4.88;2.25;;;;;;;15.46;38.31;97252.94;5075081;28;20024;-26
2022/04/12 09:56:29;;;;;;;4.18;2.40;;;;;;;15.59;37.72;97254.94;5074959;28;20028;-26
2022/04/12 09:58:59;;;;;;;2.95;2.00;;;;;;;15.74;37.68;97256.00;5073684;28;20051;-27
2022/04/12 10:01:26;;;;;;;4.75;2.28;;;;;;;15.70;37.68;97247.91;5074777;28;20066;-27
2022/04/12 10:03:57;;;;;;;4.70;2.72;;;;;;;15.61;38.17;97247.06;5074915;28;20369;-28
2022/04/12 10:06:25;;;;;;;4.82;2.40;;;;;;;15.46;38.20;97250.22;5074686;28;20077;-27
2022/04/12 10:08:55;;;;;;;4.93;2.80;;;;;;;15.44;38.42;97244.44;5074597;28;20117;-26
2022/04/12 10:11:22;;;;;;;7.95;2.70;;;;;;;15.51;38.12;97242.66;5074758;28;20025;-26
2022/04/12 10:13:48;;;;;;;4.05;1.98;;;;;;;15.52;38.31;97233.28;5074614;28;20056;-26
2022/04/12 10:16:16;;;;;;;4.68;2.10;;;;;;;15.55;38.60;97241.41;5074604;28;20077;-26
2022/04/12 10:18:43;;;;;;;6.10;2.28;;;;;;;15.87;37.76;97243.09;5074579;28;20392;-26
2022/04/12 10:21:11;;;;;;;6.25;2.25;;;;;;;15.91;37.65;97237.50;5073245;28;20021;-26
2022/04/12 10:23:38;;;;;;;4.13;2.10;;;;;;;15.93;38.12;97229.63;5074409;28;20077;-26
2022/04/12 10:26:05;;;;;;;4.85;2.33;;;;;;;15.80;37.89;97235.88;5074519;28;20036;-27
2022/04/12 10:28:31;;;;;;;3.78;2.00;;;;;;;15.73;38.40;97249.00;5074527;28;20081;-26
2022/04/12 10:31:30;;;;;;;3.58;2.13;;;;;;;15.76;37.90;97232.50;5074352;28;20029;-26
2022/04/12 10:34:01;;;;;;;3.30;2.13;;;;;;;15.89;38.20;97223.50;5074308;28;20100;-26
2022/04/12 10:36:54;;;;;;;4.03;2.03;;;;;;;15.88;38.19;97228.19;5074303;28;20028;-26
2022/04/12 10:39:28;;;;;;;4.75;2.00;;;;;;;16.10;38.22;97228.22;5072664;28;20028;-27
2022/04/12 10:41:55;;;;;;;4.38;2.17;;;;;;;16.04;38.31;97219.84;5074141;28;20069;-26
2022/04/12 10:44:22;;;;;;;3.35;1.70;;;;;;;16.11;38.20;97219.59;5073938;28;20465;-26
2022/04/12 10:46:51;;;;;;;3.15;1.90;;;;;;;16.10;38.36;97214.56;5073939;28;20104;-26
2022/04/12 10:49:19;;;;;;;3.85;1.70;;;;;;;16.13;38.37;97219.91;5074185;28;20024;-29
2022/04/12 10:51:46;;;;;;;3.25;1.83;;;;;;;16.09;38.42;97226.72;5074014;28;20028;-26
2022/04/12 10:54:33;;;;;;;4.57;1.85;;;;;;;16.07;38.62;97218.94;5073920;28;20021;-26
2022/04/12 10:57:22;;;;;;;2.17;1.40;;;;;;;16.12;38.54;97218.38;5072591;28;20111;-27
2022/04/12 11:00:10;;;;;;;3.97;1.65;;;;;;;16.01;37.87;97209.78;5073735;28;20024;-26
2022/04/12 11:02:39;;;;;;;3.38;1.70;;;;;;;16.04;38.57;97225.31;5073968;28;20427;-26
2022/04/12 11:05:07;;;;;;;3.03;1.75;;;;;;;16.05;38.42;97213.16;5073574;28;20028;-28
2022/04/12 11:07:36;;;;;;;3.17;1.83;;;;;;;16.09;38.49;97202.84;5073495;28;20067;-26
2022/04/12 11:10:27;;;;;;;2.83;1.52;;;;;;;16.10;38.34;97201.63;5073507;28;20100;-26
2022/04/12 11:13:10;;;;;;;2.50;1.75;;;;;;;16.08;38.40;97201.31;5072535;28;20481;-27
2022/04/12 11:15:38;;;;;;;3.40;1.50;;;;;;;16.17;38.17;97195.94;5073739;28;20020;-26
2022/04/12 11:18:11;;;;;;;1.88;1.33;;;;;;;16.17;38.25;97189.69;5073494;28;20310;-26
2022/04/12 11:20:39;;;;;;;2.95;1.42;;;;;;;16.20;37.85;97198.97;5073708;28;20085;-26
2022/04/12 11:23:11;;;;;;;2.90;1.65;;;;;;;16.13;38.14;97195.28;5073387;28;20020;-26
2022/04/12 11:25:51;;;;;;;2.72;1.48;;;;;;;16.15;37.82;97183.91;5073712;28;20017;-26
2022/04/12 11:28:24;;;;;;;3.08;1.48;;;;;;;16.15;37.69;97195.63;5072012;28;20522;-27
2022/04/12 11:30:55;;;;;;;1.83;1.35;;;;;;;16.24;37.41;97186.69;5073260;28;20465;-26
2022/04/12 11:33:29;;;;;;;1.92;1.30;;;;;;;16.27;37.06;97182.31;5088702;28;20097;-26
2022/04/12 11:35:56;;;;;;;4.30;1.70;;;;;;;16.25;37.29;97179.25;5073645;28;20097;-27
2022/04/12 11:38:24;;;;;;;2.88;1.58;;;;;;;16.25;37.09;97177.28;5073322;28;20472;-26